Time;durP1;ratioP1;P1;durP2;ratioP2;P2;SDS_P1;SDS_P2;PMS_P1;PMS_P2;Temp;Humidity;BMP_temperature;BMP_pressure;BME280_temperature;BME280_humidity;BME280_pressure;Samples;Min_cycle;Max_cycle;Signal;HPM_P1;HPM_P2
2021/12/29 00:01:07;;;;;;;6.07;3.30;;;11.80;99.90;;;;;;4984436;28;20202;-22
2021/12/29 00:03:37;;;;;;;5.80;3.20;;;11.80;99.90;;;;;;4969014;28;20307;-22
2021/12/29 00:06:05;;;;;;;6.40;3.27;;;11.90;99.90;;;;;;4968491;28;20246;-22
2021/12/29 00:08:32;;;;;;;4.60;2.93;;;11.80;99.90;;;;;;4967923;28;20223;-22
2021/12/29 00:10:59;;;;;;;4.57;2.97;;;11.80;99.90;;;;;;4979300;28;20561;-22
2021/12/29 00:13:27;;;;;;;4.27;2.97;;;11.80;99.90;;;;;;4969395;28;20198;-22
2021/12/29 00:15:58;;;;;;;5.63;3.27;;;11.80;99.90;;;;;;4967998;28;20254;-22
2021/12/29 00:18:35;;;;;;;4.60;2.83;;;11.80;99.90;;;;;;4968267;28;20567;-22
2021/12/29 00:21:07;;;;;;;4.63;3.00;;;11.80;99.90;;;;;;4968643;28;20210;-22
2021/12/29 00:23:37;;;;;;;4.70;2.80;;;11.80;99.90;;;;;;4967966;28;20599;-22
2021/12/29 00:26:24;;;;;;;3.60;2.80;;;11.80;99.90;;;;;;4968126;28;20608;-22
2021/12/29 00:28:52;;;;;;;5.37;3.03;;;11.80;99.90;;;;;;4970590;28;20322;-22
2021/12/29 00:31:20;;;;;;;5.03;2.80;;;11.80;99.90;;;;;;4977438;28;20187;-22
2021/12/29 00:33:47;;;;;;;5.27;2.73;;;11.80;99.90;;;;;;4990011;28;20689;-22
2021/12/29 00:36:17;;;;;;;3.63;2.27;;;11.80;99.90;;;;;;4983973;28;20693;-22
2021/12/29 00:38:47;;;;;;;3.67;2.63;;;11.80;99.90;;;;;;4987374;28;20256;-22
2021/12/29 00:41:15;;;;;;;8.10;3.23;;;11.80;99.90;;;;;;4970925;28;20752;-22
2021/12/29 00:43:44;;;;;;;6.67;3.50;;;11.80;99.90;;;;;;4980236;28;20222;-22
2021/12/29 00:46:13;;;;;;;4.93;2.73;;;11.80;99.90;;;;;;4991055;28;20651;-22
2021/12/29 00:48:43;;;;;;;5.07;2.77;;;11.80;99.90;;;;;;4971165;28;20215;-22
2021/12/29 00:51:11;;;;;;;4.00;2.87;;;11.80;99.90;;;;;;4971320;28;20294;-22
2021/12/29 00:53:39;;;;;;;4.63;2.70;;;11.80;99.90;;;;;;4977113;28;20515;-22
2021/12/29 00:56:09;;;;;;;4.27;2.60;;;11.80;99.90;;;;;;4988315;28;20216;-22
2021/12/29 00:58:36;;;;;;;5.43;2.90;;;11.80;99.90;;;;;;4986683;28;20209;-22
2021/12/29 01:01:05;;;;;;;4.23;2.60;;;11.80;99.90;;;;;;4988713;28;20310;-22
2021/12/29 01:03:36;;;;;;;5.37;2.60;;;11.80;99.90;;;;;;4980418;28;20206;-22
2021/12/29 01:06:03;;;;;;;5.53;3.20;;;11.80;99.90;;;;;;4976285;28;20210;-22
2021/12/29 01:08:31;;;;;;;4.53;2.50;;;11.80;99.90;;;;;;4982242;28;20230;-22
2021/12/29 01:10:59;;;;;;;2.73;2.40;;;11.80;99.90;;;;;;4970981;28;20210;-22
2021/12/29 01:13:48;;;;;;;5.63;2.67;;;11.80;99.90;;;;;;4976869;28;20202;-22
2021/12/29 01:16:36;;;;;;;4.43;2.33;;;11.80;99.90;;;;;;4989705;28;20248;-22
2021/12/29 01:19:26;;;;;;;3.47;2.37;;;11.80;99.90;;;;;;4970780;28;20258;-22
2021/12/29 01:22:13;;;;;;;5.97;2.60;;;11.80;99.90;;;;;;4970799;28;20215;-22
2021/12/29 01:25:03;;;;;;;4.03;2.57;;;11.80;99.90;;;;;;4981347;28;20574;-22
2021/12/29 01:27:52;;;;;;;6.50;2.77;;;11.80;99.90;;;;;;4970268;28;20230;-22
2021/12/29 01:30:39;;;;;;;3.97;2.40;;;11.80;99.90;;;;;;4970640;28;20335;-22
2021/12/29 01:33:26;;;;;;;3.93;2.60;;;11.80;99.90;;;;;;4971145;28;20203;-22
2021/12/29 01:36:13;;;;;;;3.53;2.60;;;11.80;99.90;;;;;;4983804;28;20233;-22
2021/12/29 01:39:01;;;;;;;3.37;2.47;;;11.80;99.90;;;;;;4969462;28;20215;-22
2021/12/29 01:41:51;;;;;;;10.37;3.30;;;11.80;99.90;;;;;;4970184;28;20211;-22
2021/12/29 01:44:37;;;;;;;3.63;3.00;;;11.80;99.90;;;;;;4987270;28;20230;-22
2021/12/29 01:47:30;;;;;;;6.03;3.17;;;11.80;99.90;;;;;;4970799;28;20624;-22
2021/12/29 01:50:18;;;;;;;4.20;3.10;;;11.80;99.90;;;;;;4971136;28;20257;-22
2021/12/29 01:53:09;;;;;;;3.77;3.03;;;11.80;99.90;;;;;;4969786;28;20230;-22
2021/12/29 01:55:57;;;;;;;5.90;3.50;;;11.80;99.90;;;;;;4974106;28;20291;-22
2021/12/29 01:58:44;;;;;;;4.87;3.50;;;11.80;99.90;;;;;;4972783;28;20253;-22
2021/12/29 02:01:31;;;;;;;3.80;3.10;;;11.80;99.90;;;;;;4973991;28;20210;-22
2021/12/29 02:04:18;;;;;;;4.90;3.33;;;11.80;99.90;;;;;;4983240;28;20215;-22
2021/12/29 02:06:49;;;;;;;3.67;3.33;;;11.80;99.90;;;;;;4988483;28;20208;-22
2021/12/29 02:09:19;;;;;;;4.37;3.50;;;11.80;99.90;;;;;;4972751;28;20230;-22
2021/12/29 02:12:07;;;;;;;5.23;3.47;;;11.80;99.90;;;;;;4983820;28;20218;-22
2021/12/29 02:14:36;;;;;;;4.77;3.50;;;11.80;99.90;;;;;;4974331;28;20210;-22
2021/12/29 02:17:04;;;;;;;5.40;3.50;;;11.80;99.90;;;;;;4985332;28;20202;-22
2021/12/29 02:19:33;;;;;;;4.70;3.30;;;11.90;99.90;;;;;;4984349;28;20384;-22
2021/12/29 02:22:09;;;;;;;6.37;3.43;;;11.90;99.90;;;;;;4986564;28;20214;-22
2021/12/29 02:24:42;;;;;;;4.90;3.10;;;11.90;99.90;;;;;;4977266;28;20214;-22
2021/12/29 02:27:13;;;;;;;4.53;3.17;;;11.90;99.90;;;;;;4983238;28;20298;-22
2021/12/29 02:29:42;;;;;;;5.43;2.90;;;11.80;99.90;;;;;;4986140;28;20233;-22
2021/12/29 02:32:09;;;;;;;5.50;3.40;;;11.90;99.90;;;;;;4987783;28;20673;-22
2021/12/29 02:34:39;;;;;;;5.80;3.50;;;11.90;99.90;;;;;;4989503;28;20199;-22
2021/12/29 02:37:27;;;;;;;4.67;3.47;;;11.90;99.90;;;;;;4992559;28;20218;-22
2021/12/29 02:39:54;;;;;;;6.33;3.70;;;11.90;99.90;;;;;;4984420;28;20196;-22
2021/12/29 02:42:28;;;;;;;4.40;3.47;;;11.90;99.90;;;;;;4977196;28;20217;-22
2021/12/29 02:44:55;;;;;;;5.33;3.70;;;11.90;99.90;;;;;;4970198;28;20271;-22
2021/12/29 02:47:22;;;;;;;6.43;3.40;;;11.90;99.90;;;;;;4979967;28;20476;-22
2021/12/29 02:49:49;;;;;;;4.53;3.20;;;11.80;99.90;;;;;;4970367;28;20720;-22
2021/12/29 02:52:19;;;;;;;6.20;3.50;;;11.90;99.90;;;;;;4969922;28;20235;-22
2021/12/29 02:54:46;;;;;;;5.47;3.53;;;11.90;99.90;;;;;;4969925;28;20328;-22
2021/12/29 02:57:13;;;;;;;7.03;3.53;;;11.90;99.90;;;;;;4982352;28;20202;-22
2021/12/29 02:59:41;;;;;;;8.27;3.43;;;11.90;99.90;;;;;;4973453;28;20297;-22
2021/12/29 03:02:08;;;;;;;6.23;3.63;;;11.90;99.90;;;;;;4980695;28;20627;-22
2021/12/29 03:04:38;;;;;;;7.80;3.30;;;11.90;99.90;;;;;;4987854;28;20206;-22
2021/12/29 03:07:25;;;;;;;6.13;3.37;;;11.90;99.90;;;;;;4977097;28;20217;-22
2021/12/29 03:10:14;;;;;;;6.63;3.37;;;11.90;99.90;;;;;;4979181;28;20234;-22
2021/12/29 03:13:06;;;;;;;3.83;2.60;;;11.90;99.90;;;;;;4981476;28;20203;-22
2021/12/29 03:15:54;;;;;;;6.20;3.00;;;11.90;99.90;;;;;;4987716;28;20202;-22
2021/12/29 03:18:42;;;;;;;9.77;3.40;;;11.90;99.90;;;;;;4982322;28;20233;-22
2021/12/29 03:21:31;;;;;;;4.33;2.70;;;11.90;99.90;;;;;;4977744;28;20202;-22
2021/12/29 03:24:21;;;;;;;5.90;3.00;;;11.90;99.90;;;;;;4972790;28;20226;-22
2021/12/29 03:27:10;;;;;;;7.07;2.83;;;11.90;99.90;;;;;;4984484;28;20685;-22
2021/12/29 03:29:59;;;;;;;5.93;3.03;;;11.90;99.90;;;;;;4970065;28;20230;-22
2021/12/29 03:32:52;;;;;;;5.50;2.57;;;11.90;99.90;;;;;;4974539;28;20213;-22
2021/12/29 03:35:20;;;;;;;4.70;2.50;;;11.90;99.90;;;;;;4967742;28;20204;-22
2021/12/29 03:38:03;;;;;;;3.93;2.23;;;11.90;99.90;;;;;;4981366;28;20214;-22
2021/12/29 03:40:51;;;;;;;5.53;2.80;;;11.90;99.90;;;;;;4985602;28;20221;-22
2021/12/29 03:43:39;;;;;;;4.40;2.77;;;11.90;99.90;;;;;;4968433;28;20215;-22
2021/12/29 03:46:28;;;;;;;5.80;2.77;;;11.90;99.90;;;;;;4981444;28;20645;-22
2021/12/29 03:49:15;;;;;;;5.80;2.67;;;11.90;99.90;;;;;;4968941;28;20569;-22
2021/12/29 03:52:05;;;;;;;4.37;2.37;;;11.90;99.90;;;;;;4970288;28;20305;-22
2021/12/29 03:54:52;;;;;;;4.93;2.87;;;11.90;99.90;;;;;;4968257;28;20210;-22
2021/12/29 03:57:39;;;;;;;5.40;2.60;;;11.90;99.90;;;;;;4967821;28;20222;-22
2021/12/29 04:00:14;;;;;;;5.67;2.50;;;11.90;99.90;;;;;;4968860;28;20270;-22
2021/12/29 04:02:59;;;;;;;5.07;2.67;;;11.90;99.90;;;;;;4973918;28;20205;-22
2021/12/29 04:05:29;;;;;;;3.37;2.33;;;11.90;99.90;;;;;;4980967;28;20210;-22
2021/12/29 04:07:57;;;;;;;7.67;3.07;;;11.90;99.90;;;;;;4985973;28;20245;-22
2021/12/29 04:10:24;;;;;;;3.50;2.67;;;11.90;99.90;;;;;;4972014;28;20227;-22
2021/12/29 04:12:54;;;;;;;4.57;2.47;;;11.90;99.90;;;;;;4974547;28;20217;-22
2021/12/29 04:15:29;;;;;;;3.03;2.50;;;11.90;99.90;;;;;;4989859;28;20207;-22
2021/12/29 04:17:58;;;;;;;6.70;2.70;;;11.90;99.90;;;;;;4984781;28;20592;-22
2021/12/29 04:23:18;;;;;;;4.23;2.80;;;11.90;99.90;;;;;;4972385;28;20199;-25
2021/12/29 04:25:49;;;;;;;3.50;2.60;;;11.90;99.90;;;;;;4972180;28;20225;-24
2021/12/29 04:28:22;;;;;;;4.27;2.80;;;11.90;99.90;;;;;;4977026;28;20661;-25
2021/12/29 04:30:54;;;;;;;5.20;3.00;;;11.90;99.90;;;;;;4991557;28;20220;-24
2021/12/29 04:33:23;;;;;;;4.13;2.63;;;11.90;99.90;;;;;;4981708;28;20233;-25
2021/12/29 04:35:52;;;;;;;7.70;2.77;;;11.90;99.90;;;;;;4983471;28;20215;-25
2021/12/29 04:38:24;;;;;;;5.30;2.60;;;11.90;99.90;;;;;;4972361;28;20611;-22
2021/12/29 04:40:55;;;;;;;6.80;2.73;;;11.90;99.90;;;;;;4987611;28;20209;-22
2021/12/29 04:43:25;;;;;;;6.13;2.57;;;11.90;99.90;;;;;;4989093;28;20237;-22
2021/12/29 04:45:54;;;;;;;4.17;2.63;;;11.90;99.90;;;;;;4980837;28;20199;-22
2021/12/29 04:48:23;;;;;;;4.53;2.50;;;11.90;99.90;;;;;;4977461;28;20670;-23
2021/12/29 04:51:04;;;;;;;5.23;2.67;;;11.90;99.90;;;;;;4970065;28;20619;-22
2021/12/29 04:53:32;;;;;;;5.10;2.83;;;11.90;99.90;;;;;;4976412;28;20650;-22
2021/12/29 04:56:00;;;;;;;5.00;2.73;;;11.90;99.90;;;;;;4974102;28;20246;-22
2021/12/29 04:58:29;;;;;;;5.37;2.53;;;11.90;99.90;;;;;;4979633;28;20218;-22
2021/12/29 05:00:59;;;;;;;4.73;2.60;;;11.90;99.90;;;;;;4971228;28;20207;-22
2021/12/29 05:03:30;;;;;;;4.17;2.70;;;11.90;99.90;;;;;;4971060;28;20206;-22
2021/12/29 05:08:33;;;;;;;8.37;2.83;;;11.90;99.90;;;;;;4986068;28;20210;-22
2021/12/29 05:11:02;;;;;;;4.20;2.63;;;11.90;99.90;;;;;;4985399;28;20246;-22
2021/12/29 05:13:32;;;;;;;4.93;2.63;;;11.90;99.90;;;;;;4970707;28;20618;-22
2021/12/29 05:15:59;;;;;;;6.33;2.93;;;11.90;99.90;;;;;;4975639;28;20222;-22
2021/12/29 05:18:32;;;;;;;5.57;2.83;;;11.90;99.90;;;;;;4976502;28;20289;-22
2021/12/29 05:21:00;;;;;;;5.60;2.63;;;11.90;99.90;;;;;;4971143;28;20573;-22
2021/12/29 05:23:30;;;;;;;6.33;3.03;;;11.90;99.90;;;;;;4970547;28;20202;-22
2021/12/29 05:25:59;;;;;;;6.23;2.90;;;11.90;99.90;;;;;;4978120;28;20225;-22
2021/12/29 05:28:26;;;;;;;4.40;2.83;;;11.90;99.90;;;;;;4979097;28;20210;-22
2021/12/29 05:30:56;;;;;;;5.20;3.03;;;11.90;99.90;;;;;;4975520;28;20623;-22
2021/12/29 05:33:23;;;;;;;5.60;2.53;;;11.90;99.90;;;;;;4970858;28;20685;-22
2021/12/29 05:35:51;;;;;;;4.53;2.40;;;11.90;99.90;;;;;;4969646;28;20677;-22
2021/12/29 05:38:19;;;;;;;5.00;3.03;;;11.90;99.90;;;;;;4976745;28;20195;-22
2021/12/29 05:40:48;;;;;;;5.57;2.67;;;11.90;99.90;;;;;;4987935;28;20229;-22
2021/12/29 05:43:18;;;;;;;8.00;2.67;;;11.90;99.90;;;;;;4987306;28;20218;-23
2021/12/29 05:45:46;;;;;;;5.60;2.70;;;11.90;99.90;;;;;;4979276;28;20203;-22
2021/12/29 05:48:13;;;;;;;6.87;2.60;;;11.90;99.90;;;;;;4974468;28;20593;-22
2021/12/29 05:50:40;;;;;;;5.43;2.63;;;11.90;99.90;;;;;;4981933;28;20233;-22
2021/12/29 05:53:10;;;;;;;5.37;2.53;;;11.90;99.90;;;;;;4970241;28;20317;-23
2021/12/29 05:55:41;;;;;;;5.97;2.77;;;11.90;99.90;;;;;;4970015;28;20199;-25
2021/12/29 05:58:09;;;;;;;6.73;2.60;;;11.90;99.90;;;;;;4970798;28;20210;-25
2021/12/29 06:00:39;;;;;;;4.23;2.80;;;11.90;99.90;;;;;;4980557;28;20206;-24
2021/12/29 06:03:07;;;;;;;5.37;2.70;;;11.90;99.90;;;;;;4984224;28;20210;-25
2021/12/29 06:05:36;;;;;;;6.57;2.50;;;11.90;99.90;;;;;;4985008;28;20353;-25
2021/12/29 06:08:07;;;;;;;6.40;2.97;;;11.90;99.90;;;;;;4976111;28;20223;-25
2021/12/29 06:10:35;;;;;;;7.17;2.70;;;11.90;99.90;;;;;;4985107;28;20237;-24
2021/12/29 06:13:02;;;;;;;6.47;3.00;;;11.90;99.90;;;;;;4974472;28;20299;-24
2021/12/29 06:15:30;;;;;;;6.30;2.70;;;11.90;99.90;;;;;;4986673;28;20290;-25
2021/12/29 06:18:00;;;;;;;6.83;2.57;;;11.90;99.90;;;;;;4978663;28;20487;-28
2021/12/29 06:20:27;;;;;;;8.67;2.90;;;11.90;99.90;;;;;;4981655;28;20210;-25
2021/12/29 06:22:57;;;;;;;7.30;2.53;;;11.90;99.90;;;;;;4983321;28;20229;-25
2021/12/29 06:25:29;;;;;;;7.43;2.87;;;11.90;99.90;;;;;;4984281;28;20198;-25
2021/12/29 06:27:56;;;;;;;4.87;2.20;;;12.00;99.90;;;;;;4981096;28;20297;-25
2021/12/29 06:30:23;;;;;;;8.20;2.13;;;11.90;99.90;;;;;;4975455;28;20340;-25
2021/12/29 06:32:50;;;;;;;4.33;2.27;;;11.90;99.90;;;;;;4975428;28;20191;-25
2021/12/29 06:35:18;;;;;;;4.53;2.10;;;11.90;99.90;;;;;;4986715;28;20214;-25
2021/12/29 06:37:47;;;;;;;5.73;2.37;;;11.90;99.90;;;;;;4979171;28;20212;-25
2021/12/29 06:40:15;;;;;;;6.60;2.00;;;11.90;99.90;;;;;;4969230;28;20644;-25
2021/12/29 06:42:43;;;;;;;7.20;2.20;;;11.90;99.90;;;;;;4969862;28;20218;-24
2021/12/29 06:45:12;;;;;;;7.70;1.90;;;11.90;99.90;;;;;;4969285;28;20250;-25
2021/12/29 06:47:40;;;;;;;5.40;2.40;;;11.90;99.90;;;;;;4985168;28;20230;-24
2021/12/29 06:50:08;;;;;;;6.27;2.30;;;11.90;99.90;;;;;;4982336;28;20266;-25
2021/12/29 06:52:35;;;;;;;6.30;2.57;;;11.90;99.90;;;;;;4968289;28;20272;-25
2021/12/29 06:55:03;;;;;;;6.30;2.30;;;11.90;99.90;;;;;;4974420;28;20680;-25
2021/12/29 06:57:33;;;;;;;6.87;2.07;;;11.90;99.90;;;;;;4970050;28;20203;-24
2021/12/29 07:00:00;;;;;;;7.60;2.77;;;11.90;99.90;;;;;;4976565;28;20206;-25
2021/12/29 07:02:27;;;;;;;8.63;2.90;;;11.90;99.90;;;;;;4976685;28;20693;-24
2021/12/29 07:05:00;;;;;;;4.60;2.20;;;11.80;99.90;;;;;;4970046;28;20314;-25
2021/12/29 07:07:29;;;;;;;8.07;2.83;;;11.80;99.90;;;;;;4979578;28;20210;-25
2021/12/29 07:09:56;;;;;;;6.73;2.43;;;11.80;99.90;;;;;;4985044;28;20221;-25
2021/12/29 07:12:23;;;;;;;10.47;2.30;;;11.80;99.90;;;;;;4977994;28;20187;-24
2021/12/29 07:14:53;;;;;;;4.57;1.93;;;11.80;99.90;;;;;;4972149;28;20676;-25
2021/12/29 07:17:23;;;;;;;6.20;2.40;;;11.80;99.90;;;;;;4975475;28;20677;-24
2021/12/29 07:19:53;;;;;;;5.67;1.80;;;11.80;99.90;;;;;;4986387;28;20277;-25
2021/12/29 07:22:20;;;;;;;8.87;2.27;;;11.70;99.90;;;;;;4975420;28;20202;-25
2021/12/29 07:24:49;;;;;;;6.23;1.90;;;11.80;99.90;;;;;;4980823;28;20240;-25
2021/12/29 07:27:17;;;;;;;5.67;2.47;;;11.70;99.90;;;;;;4969855;28;20278;-24
2021/12/29 07:29:47;;;;;;;5.07;2.10;;;11.70;99.90;;;;;;4979490;28;20835;-24
2021/12/29 07:32:14;;;;;;;5.53;1.90;;;11.70;99.90;;;;;;4980170;28;20578;-25
2021/12/29 07:34:42;;;;;;;6.43;2.03;;;11.70;99.90;;;;;;4972184;28;20213;-25
2021/12/29 07:37:12;;;;;;;6.13;2.07;;;11.70;99.90;;;;;;4986505;28;20217;-25
2021/12/29 07:39:39;;;;;;;9.50;2.53;;;11.70;99.90;;;;;;4986380;28;20664;-25
2021/12/29 07:42:11;;;;;;;5.07;2.20;;;11.70;99.90;;;;;;4976003;28;20207;-25
2021/12/29 07:44:40;;;;;;;4.83;2.03;;;11.70;99.90;;;;;;4983565;28;20341;-24
2021/12/29 07:47:11;;;;;;;5.80;2.43;;;11.70;99.90;;;;;;4979490;28;20610;-25
2021/12/29 07:49:38;;;;;;;5.93;2.10;;;11.70;99.90;;;;;;4981358;28;20240;-25
2021/12/29 07:52:05;;;;;;;6.63;2.70;;;11.70;99.90;;;;;;4979307;28;20583;-25
2021/12/29 07:54:33;;;;;;;6.90;2.17;;;11.70;99.90;;;;;;4976610;28;20682;-25
2021/12/29 07:57:00;;;;;;;6.37;2.23;;;11.60;99.90;;;;;;4971862;28;20657;-25
2021/12/29 07:59:34;;;;;;;8.00;2.10;;;11.60;99.90;;;;;;4983399;28;20290;-24
2021/12/29 08:02:04;;;;;;;7.73;2.23;;;11.60;99.90;;;;;;4983024;28;20587;-25
2021/12/29 08:04:32;;;;;;;7.70;2.23;;;11.60;99.90;;;;;;4980321;28;20205;-25
2021/12/29 08:06:59;;;;;;;7.43;2.30;;;11.60;99.90;;;;;;4976772;28;20202;-24
2021/12/29 08:09:26;;;;;;;6.80;2.27;;;11.60;99.90;;;;;;4981210;28;20199;-22
2021/12/29 08:11:56;;;;;;;4.57;2.10;;;11.60;99.90;;;;;;4972077;28;20199;-22
2021/12/29 08:14:23;;;;;;;5.40;2.70;;;11.60;99.90;;;;;;4979993;28;20208;-22
2021/12/29 08:16:52;;;;;;;7.63;2.40;;;11.50;99.90;;;;;;4983220;28;20257;-22
2021/12/29 08:19:20;;;;;;;5.57;2.13;;;11.50;99.90;;;;;;4972368;28;20207;-22
2021/12/29 08:21:48;;;;;;;8.07;2.27;;;11.50;99.90;;;;;;4979707;28;20696;-24
2021/12/29 08:24:19;;;;;;;9.17;2.43;;;11.50;99.90;;;;;;4988643;28;20209;-26
2021/12/29 08:26:46;;;;;;;6.13;2.40;;;11.50;99.90;;;;;;4984971;28;20202;-25
2021/12/29 08:29:13;;;;;;;7.80;2.57;;;11.50;99.90;;;;;;4983159;28;20678;-24
2021/12/29 08:31:43;;;;;;;9.60;2.53;;;11.50;99.90;;;;;;4973240;28;20221;-25
2021/12/29 08:34:10;;;;;;;9.00;2.17;;;11.50;99.90;;;;;;4975181;28;20211;-26
2021/12/29 08:36:41;;;;;;;4.63;2.13;;;11.50;99.90;;;;;;4989249;28;20308;-24
2021/12/29 08:39:08;;;;;;;7.47;3.20;;;11.50;99.90;;;;;;4991279;28;20297;-25
2021/12/29 08:41:35;;;;;;;8.90;3.53;;;11.50;99.90;;;;;;4971073;28;20293;-25
2021/12/29 08:44:03;;;;;;;5.80;2.50;;;11.50;99.90;;;;;;4973358;28;20374;-25
2021/12/29 08:46:31;;;;;;;6.83;2.13;;;11.50;99.90;;;;;;4979851;28;20583;-24
2021/12/29 08:48:58;;;;;;;6.07;2.17;;;11.50;99.90;;;;;;4971073;28;20759;-24
2021/12/29 08:51:28;;;;;;;8.37;2.67;;;11.50;99.90;;;;;;4972141;28;20234;-24
2021/12/29 08:53:57;;;;;;;6.17;2.17;;;11.50;99.90;;;;;;4972820;28;20199;-25
2021/12/29 08:56:26;;;;;;;8.47;1.90;;;11.50;99.90;;;;;;4974481;28;20651;-25
2021/12/29 08:58:54;;;;;;;5.33;2.23;;;11.50;99.90;;;;;;4971051;28;20237;-25
2021/12/29 09:01:41;;;;;;;6.93;2.33;;;11.50;99.90;;;;;;4977166;28;20226;-24
2021/12/29 09:04:28;;;;;;;6.03;2.03;;;11.50;99.90;;;;;;4991918;28;20537;-25
2021/12/29 09:07:00;;;;;;;6.93;2.67;;;11.50;99.90;;;;;;4989577;28;20248;-25
2021/12/29 09:09:27;;;;;;;7.27;2.17;;;11.50;99.90;;;;;;4980045;28;20249;-24
2021/12/29 09:11:55;;;;;;;7.13;2.67;;;11.50;99.90;;;;;;4970122;28;20234;-25
2021/12/29 09:14:27;;;;;;;5.27;2.10;;;11.50;99.90;;;;;;4972061;28;20733;-25
2021/12/29 09:16:54;;;;;;;7.70;3.00;;;11.50;99.90;;;;;;4979596;28;20198;-25
2021/12/29 09:19:24;;;;;;;7.10;2.63;;;11.50;99.90;;;;;;4985647;28;20305;-24
2021/12/29 09:21:57;;;;;;;7.57;2.30;;;11.60;99.90;;;;;;4982371;28;20213;-25
2021/12/29 09:24:24;;;;;;;7.53;2.53;;;11.60;99.90;;;;;;4975840;28;20205;-25
2021/12/29 09:26:52;;;;;;;6.07;2.30;;;11.60;99.90;;;;;;4978133;28;20206;-25
2021/12/29 09:29:21;;;;;;;7.67;2.90;;;11.60;99.90;;;;;;4975596;28;20759;-25
2021/12/29 09:31:49;;;;;;;7.47;2.00;;;11.60;99.90;;;;;;4978223;28;20235;-25
2021/12/29 09:34:17;;;;;;;7.20;2.00;;;11.70;99.90;;;;;;4973168;28;21067;-25
2021/12/29 09:36:48;;;;;;;7.03;2.27;;;11.70;99.90;;;;;;4984946;28;20491;-25
2021/12/29 09:39:15;;;;;;;8.93;2.50;;;11.70;99.90;;;;;;4970204;28;20230;-24
2021/12/29 09:41:43;;;;;;;5.17;2.00;;;11.70;99.90;;;;;;4973200;28;20234;-25
2021/12/29 09:44:11;;;;;;;5.33;2.30;;;11.70;99.90;;;;;;4969529;28;20211;-25
2021/12/29 09:46:39;;;;;;;7.43;2.50;;;11.70;99.90;;;;;;4977796;28;20229;-25
2021/12/29 09:49:06;;;;;;;8.17;2.57;;;11.70;99.90;;;;;;4987571;28;20202;-24
2021/12/29 09:51:36;;;;;;;6.57;2.30;;;11.80;99.90;;;;;;4975863;28;20237;-25
2021/12/29 09:54:06;;;;;;;8.80;2.33;;;11.80;99.90;;;;;;4970091;28;20716;-25
2021/12/29 09:56:33;;;;;;;6.50;2.10;;;11.80;99.90;;;;;;4972831;28;20731;-25
2021/12/29 09:59:00;;;;;;;7.20;2.30;;;11.80;99.90;;;;;;4979882;28;20230;-25
2021/12/29 10:01:31;;;;;;;6.60;2.50;;;11.80;99.90;;;;;;4968405;28;20211;-25
2021/12/29 10:04:00;;;;;;;9.17;2.20;;;11.90;99.90;;;;;;4983800;28;20219;-25
2021/12/29 10:06:28;;;;;;;5.57;1.90;;;11.90;99.90;;;;;;4973433;28;20760;-25
2021/12/29 10:09:08;;;;;;;9.20;2.27;;;11.90;99.90;;;;;;4988882;28;20202;-24
2021/12/29 10:11:36;;;;;;;8.20;2.17;;;11.90;99.90;;;;;;4970725;28;20307;-24
2021/12/29 10:14:11;;;;;;;8.60;2.20;;;12.00;99.90;;;;;;4982913;28;20589;-24
2021/12/29 10:16:40;;;;;;;8.37;2.37;;;12.00;99.90;;;;;;4977990;28;20458;-25
2021/12/29 10:19:12;;;;;;;13.93;2.73;;;12.00;99.90;;;;;;4982683;28;20224;-24
2021/12/29 10:21:48;;;;;;;7.20;2.20;;;12.00;99.90;;;;;;4981016;28;20301;-25
2021/12/29 10:24:20;;;;;;;8.50;2.87;;;12.00;99.90;;;;;;4979364;28;20766;-25
2021/12/29 10:26:49;;;;;;;6.67;2.07;;;12.00;99.90;;;;;;4975316;28;20214;-25
2021/12/29 10:29:19;;;;;;;9.73;2.17;;;12.10;99.90;;;;;;4971050;28;20697;-24
2021/12/29 10:31:52;;;;;;;8.67;2.50;;;12.10;99.90;;;;;;4969928;28;20593;-25
2021/12/29 10:34:23;;;;;;;9.00;2.67;;;12.10;99.90;;;;;;4972730;28;20202;-24
2021/12/29 10:36:57;;;;;;;7.17;2.30;;;12.10;99.90;;;;;;4987763;28;20301;-25
2021/12/29 10:39:28;;;;;;;6.17;2.03;;;12.10;99.90;;;;;;4986010;28;20202;-24
2021/12/29 10:42:02;;;;;;;9.33;2.50;;;12.10;99.90;;;;;;4975847;28;20638;-25
2021/12/29 10:44:35;;;;;;;6.57;2.33;;;12.10;99.90;;;;;;4982625;28;20218;-24
2021/12/29 10:47:13;;;;;;;10.27;2.80;;;12.20;99.90;;;;;;4972932;28;20345;-25
2021/12/29 10:49:57;;;;;;;9.43;3.07;;;12.20;99.90;;;;;;4978422;28;20669;-25
2021/12/29 10:52:49;;;;;;;11.97;2.80;;;12.20;99.90;;;;;;4976134;28;20607;-24
2021/12/29 10:55:20;;;;;;;5.77;3.10;;;12.20;99.90;;;;;;4978765;28;20241;-25
2021/12/29 10:58:02;;;;;;;7.70;2.83;;;12.30;99.90;;;;;;4968181;28;20195;-25
2021/12/29 11:01:03;;;;;;;7.40;2.73;;;12.30;99.90;;;;;;4981445;28;20206;-25
2021/12/29 11:03:32;;;;;;;6.53;2.67;;;12.30;99.90;;;;;;4968879;28;20777;-24
2021/12/29 11:06:03;;;;;;;7.77;2.90;;;12.30;99.90;;;;;;4974681;28;20202;-25
2021/12/29 11:08:44;;;;;;;4.67;2.30;;;12.30;99.90;;;;;;4982495;28;20207;-25
2021/12/29 11:11:12;;;;;;;5.57;3.03;;;12.40;99.90;;;;;;4976201;28;20568;-22
2021/12/29 11:13:41;;;;;;;8.33;3.37;;;12.40;99.90;;;;;;4967164;28;20218;-22
2021/12/29 11:16:09;;;;;;;7.37;3.20;;;12.40;99.90;;;;;;4967377;28;20317;-22
2021/12/29 11:18:44;;;;;;;7.53;2.80;;;12.40;99.90;;;;;;4968944;28;20207;-22
2021/12/29 11:21:29;;;;;;;6.67;3.40;;;12.50;99.90;;;;;;4976838;28;20230;-22
2021/12/29 11:23:56;;;;;;;7.43;3.20;;;12.50;99.90;;;;;;4974244;28;20218;-22
2021/12/29 11:26:32;;;;;;;9.17;3.10;;;12.50;99.90;;;;;;4988011;28;20453;-22
2021/12/29 11:29:08;;;;;;;6.73;2.90;;;12.50;99.90;;;;;;4985380;28;20226;-22
2021/12/29 11:31:41;;;;;;;8.70;2.83;;;12.60;99.90;;;;;;4966924;28;20241;-22
2021/12/29 11:34:14;;;;;;;7.17;3.10;;;12.60;99.90;;;;;;4969560;28;20213;-22
2021/12/29 11:36:59;;;;;;;6.70;2.93;;;12.60;99.90;;;;;;4987904;28;20206;-22
2021/12/29 11:39:28;;;;;;;7.90;2.90;;;12.60;99.90;;;;;;4968253;28;20781;-22
2021/12/29 11:41:58;;;;;;;9.20;3.00;;;12.60;99.90;;;;;;4981013;28;20221;-22
2021/12/29 11:44:25;;;;;;;5.67;2.77;;;12.60;99.90;;;;;;4983683;28;20198;-22
2021/12/29 11:46:53;;;;;;;5.93;2.90;;;12.70;99.90;;;;;;4985587;28;20683;-22
2021/12/29 11:49:20;;;;;;;8.07;2.93;;;12.70;99.90;;;;;;4969486;28;20656;-22
2021/12/29 11:52:33;;;;;;;6.00;2.90;;;12.70;99.90;;;;;;4978409;28;20606;-22
2021/12/29 11:55:13;;;;;;;7.27;3.50;;;12.80;99.90;;;;;;4963862;28;20562;-22
2021/12/29 11:57:43;;;;;;;6.37;2.80;;;12.80;99.90;;;;;;4984562;28;20305;-22
2021/12/29 12:00:17;;;;;;;6.23;2.60;;;12.80;99.90;;;;;;4981774;28;20207;-22
2021/12/29 12:02:47;;;;;;;5.37;2.83;;;12.80;99.90;;;;;;4968013;28;20309;-22
2021/12/29 12:05:24;;;;;;;8.07;2.77;;;12.80;99.90;;;;;;4968841;28;20234;-22
2021/12/29 12:07:51;;;;;;;5.43;2.97;;;12.90;99.90;;;;;;4983069;28;20206;-22
2021/12/29 12:10:35;;;;;;;6.83;2.97;;;12.90;99.90;;;;;;4986984;28;20210;-22
2021/12/29 12:13:23;;;;;;;6.40;3.10;;;12.90;99.90;;;;;;4987109;28;20198;-22
2021/12/29 12:16:10;;;;;;;7.40;2.60;;;12.90;99.90;;;;;;4973154;28;20573;-22
2021/12/29 12:18:55;;;;;;;7.40;2.63;;;12.90;99.90;;;;;;4968050;28;20599;-22
2021/12/29 12:21:30;;;;;;;7.70;2.77;;;13.00;99.90;;;;;;4968275;28;20206;-22
2021/12/29 12:24:19;;;;;;;6.80;2.50;;;13.00;99.90;;;;;;4976231;28;20298;-22
2021/12/29 12:26:52;;;;;;;6.33;2.60;;;13.00;99.90;;;;;;4971931;28;20211;-22
2021/12/29 12:29:21;;;;;;;8.60;2.57;;;13.00;99.90;;;;;;4971390;28;20210;-22
2021/12/29 12:32:12;;;;;;;6.73;2.27;;;13.00;99.90;;;;;;4972727;28;20233;-22
2021/12/29 12:34:54;;;;;;;4.93;2.30;;;13.00;99.90;;;;;;4971851;28;20538;-22
2021/12/29 12:37:32;;;;;;;8.73;3.27;;;13.00;99.90;;;;;;4970318;28;20203;-22
2021/12/29 12:40:25;;;;;;;5.97;2.30;;;13.00;99.90;;;;;;4973495;28;20669;-22
2021/12/29 12:43:11;;;;;;;8.60;2.47;;;13.00;99.90;;;;;;4997869;28;20563;-22
2021/12/29 12:45:42;;;;;;;5.70;2.27;;;13.00;99.90;;;;;;4971224;28;20199;-22
2021/12/29 12:48:24;;;;;;;6.27;2.40;;;13.00;99.90;;;;;;4978507;28;20202;-22
2021/12/29 12:50:52;;;;;;;6.30;2.37;;;13.00;99.90;;;;;;4990158;28;20206;-22
2021/12/29 12:53:41;;;;;;;6.67;2.30;;;13.10;99.90;;;;;;4990553;28;20373;-22
2021/12/29 12:56:18;;;;;;;5.97;2.03;;;13.10;99.90;;;;;;4980874;28;20719;-22
2021/12/29 12:58:50;;;;;;;5.80;2.60;;;13.10;99.90;;;;;;4972970;28;20203;-22
2021/12/29 13:01:25;;;;;;;5.17;2.17;;;13.00;99.90;;;;;;4996373;28;20225;-22
2021/12/29 13:04:03;;;;;;;4.93;2.00;;;13.10;99.90;;;;;;4979884;28;20202;-22
2021/12/29 13:06:35;;;;;;;5.93;1.87;;;13.10;99.90;;;;;;4972155;28;20215;-22
2021/12/29 13:09:07;;;;;;;6.43;2.00;;;13.10;99.90;;;;;;4984654;28;20203;-22
2021/12/29 13:11:37;;;;;;;4.90;2.20;;;13.10;99.90;;;;;;4976643;28;20210;-22
2021/12/29 13:14:06;;;;;;;4.83;2.03;;;13.10;99.90;;;;;;4990179;28;20205;-22
2021/12/29 13:16:36;;;;;;;3.13;1.63;;;13.10;99.90;;;;;;4974581;28;20203;-22
2021/12/29 13:19:06;;;;;;;5.73;1.80;;;13.00;99.90;;;;;;4975387;28;20616;-22
2021/12/29 13:21:41;;;;;;;6.77;2.17;;;13.10;99.90;;;;;;4971316;28;20210;-22